RJAA/NRT METAR and TAF weather

Enter ICAO airport designator
Station Type Date Time Source
RJAA METAR 2019/12/10 06:00 UTC NOAA

RJAA 100600Z 04005KT 340V080 9999 FEW015 BKN025 15/12 Q1020 NOSIG


Station Type Date Time Source
RJAA Decoded METAR 2019/12/10 06:00 UTC NOAA

New Tokyo Inter-National Airport, Japan (RJAA) 35-46N 140-23E 44M
Dec 10, 2019 - 01:00 AM EST / 2019.12.10 0600 UTC
Wind: from the NE (040 degrees) at 6 MPH (5 KT) (direction variable):0
Visibility: greater than 7 mile(s):0
Sky conditions: mostly cloudy
Temperature: 59 F (15 C)
Dew Point: 53 F (12 C)
Relative Humidity: 82%
Pressure (altimeter): 30.12 in. Hg (1020 hPa)
ob: RJAA 100600Z 04005KT 340V080 9999 FEW015 BKN025 15/12 Q1020 NOSIG
cycle: 6

Station Type Date Time Source
RJAA TAF 2019/12/10 06:09 UTC NOAA

TAF TAF RJAA 100505Z 1006/1112 36005KT 9999 FEW010 BKN020
BECMG 1012/1014 4000 BR FEW004 BKN008
TEMPO 1018/1100 1500 BR BCFG FEW001 BKN003
BECMG 1100/1103 9999 NSW FEW030
BECMG 1103/1106 15005KT

Example: see airport list